createdAt,value
2019-03-17T00:01:04.945Z,4.60
2019-03-17T00:03:33.188Z,4.50
2019-03-17T00:06:01.443Z,5.10
2019-03-17T00:08:29.703Z,5.70
2019-03-17T00:10:57.959Z,4.80
2019-03-17T00:13:26.200Z,4.53
2019-03-17T00:15:54.472Z,5.30
2019-03-17T00:18:22.707Z,4.60
2019-03-17T00:20:50.966Z,4.77
2019-03-17T00:23:19.218Z,5.20
2019-03-17T00:25:47.478Z,4.80
2019-03-17T00:28:15.727Z,4.77
2019-03-17T00:30:43.992Z,6.50
2019-03-17T00:33:12.234Z,5.70
2019-03-17T00:35:40.495Z,5.70
2019-03-17T00:38:08.782Z,7.10
2019-03-17T00:40:37.037Z,6.00
2019-03-17T00:43:05.278Z,5.92
2019-03-17T00:45:33.532Z,7.03
2019-03-17T00:48:01.776Z,6.13
2019-03-17T00:50:30.041Z,7.53
2019-03-17T00:52:58.289Z,6.70
2019-03-17T00:55:26.565Z,7.50
2019-03-17T00:57:54.818Z,7.87
2019-03-17T01:00:23.069Z,5.90
2019-03-17T01:02:51.323Z,7.22
2019-03-17T01:05:19.572Z,7.30
2019-03-17T01:07:47.831Z,6.80
2019-03-17T01:10:16.075Z,7.10
2019-03-17T01:12:45.071Z,7.78
2019-03-17T01:15:14.310Z,7.95
2019-03-17T01:17:42.559Z,6.53
2019-03-17T01:20:11.151Z,6.17
2019-03-17T01:22:39.403Z,8.90
2019-03-17T01:25:39.166Z,7.23
2019-03-17T01:28:07.435Z,7.50
2019-03-17T01:30:35.675Z,6.60
2019-03-17T01:33:03.921Z,6.83
2019-03-17T01:35:32.818Z,7.13
2019-03-17T01:38:21.530Z,7.57
2019-03-17T01:40:49.784Z,6.77
2019-03-17T01:43:18.037Z,7.57
2019-03-17T01:45:46.309Z,8.00
2019-03-17T01:48:14.553Z,8.10
2019-03-17T01:50:42.805Z,7.37
2019-03-17T01:53:11.081Z,7.80
2019-03-17T01:55:39.321Z,8.27
2019-03-17T01:58:07.577Z,7.13
2019-03-17T02:00:35.829Z,7.20
2019-03-17T02:03:04.078Z,8.00
2019-03-17T02:05:32.337Z,9.57
2019-03-17T02:08:00.591Z,7.73
2019-03-17T02:10:28.846Z,7.60
2019-03-17T02:12:57.110Z,8.30
2019-03-17T02:15:25.421Z,8.27
2019-03-17T02:17:53.673Z,8.40
2019-03-17T02:20:21.921Z,8.48
2019-03-17T02:22:50.167Z,8.00
2019-03-17T02:25:18.423Z,8.30
2019-03-17T02:27:46.680Z,8.43
2019-03-17T02:30:14.942Z,8.25
2019-03-17T02:32:43.180Z,8.50
2019-03-17T02:35:11.430Z,7.33
2019-03-17T02:37:39.710Z,8.67
2019-03-17T02:40:08.016Z,8.80
2019-03-17T02:42:36.305Z,8.50
2019-03-17T02:45:35.659Z,8.05
2019-03-17T02:48:03.917Z,8.50
2019-03-17T02:50:32.161Z,8.90
2019-03-17T02:53:00.413Z,8.20
2019-03-17T02:55:28.669Z,8.50
2019-03-17T02:57:56.933Z,8.40
2019-03-17T03:00:25.197Z,8.00
2019-03-17T03:02:53.448Z,7.20
2019-03-17T03:05:21.706Z,7.55
2019-03-17T03:07:49.964Z,8.35
2019-03-17T03:10:18.259Z,7.90
2019-03-17T03:12:46.517Z,7.67
2019-03-17T03:15:14.765Z,7.80
2019-03-17T03:17:43.031Z,8.90
2019-03-17T03:20:11.333Z,8.50
2019-03-17T03:22:39.601Z,7.20
2019-03-17T03:25:39.285Z,8.50
2019-03-17T03:28:07.545Z,8.55
2019-03-17T03:30:35.825Z,8.78
2019-03-17T03:33:04.095Z,8.83
2019-03-17T03:35:32.351Z,8.90
2019-03-17T03:38:00.623Z,8.40
2019-03-17T03:40:28.859Z,8.40
2019-03-17T03:42:57.119Z,8.47
2019-03-17T03:45:25.407Z,8.50
2019-03-17T03:47:53.636Z,8.78
2019-03-17T03:50:21.892Z,9.07
2019-03-17T03:52:50.141Z,8.53
2019-03-17T03:55:18.421Z,8.60
2019-03-17T03:57:46.674Z,9.17
2019-03-17T04:00:54.961Z,8.27
2019-03-17T04:03:23.218Z,9.07
2019-03-17T04:05:51.477Z,10.13
2019-03-17T04:08:19.732Z,9.23
2019-03-17T04:10:47.993Z,8.77
2019-03-17T04:13:16.240Z,9.00
2019-03-17T04:15:44.578Z,10.13
2019-03-17T04:18:12.821Z,9.33
2019-03-17T04:20:41.097Z,9.53
2019-03-17T04:23:09.362Z,10.00
2019-03-17T04:25:37.635Z,9.73
2019-03-17T04:28:05.890Z,10.90
2019-03-17T04:30:34.158Z,10.00
2019-03-17T04:33:02.419Z,9.37
2019-03-17T04:35:30.689Z,9.23
2019-03-17T04:37:58.948Z,10.20
2019-03-17T04:40:27.231Z,9.60
2019-03-17T04:42:55.513Z,8.87
2019-03-17T04:45:23.767Z,9.30
2019-03-17T04:47:52.022Z,8.80
2019-03-17T04:50:20.278Z,7.70
2019-03-17T04:52:48.533Z,7.45
2019-03-17T04:55:16.786Z,7.47
2019-03-17T04:58:36.961Z,7.97
2019-03-17T05:01:05.221Z,6.47
2019-03-17T05:03:33.470Z,6.57
2019-03-17T05:06:01.721Z,7.33
2019-03-17T05:08:29.983Z,6.07
2019-03-17T05:10:58.235Z,6.37
2019-03-17T05:13:26.484Z,5.57
2019-03-17T05:15:54.748Z,5.80
2019-03-17T05:18:22.991Z,6.13
2019-03-17T05:20:51.255Z,6.27
2019-03-17T05:23:19.497Z,5.50
2019-03-17T05:25:47.742Z,4.80
2019-03-17T05:28:16.013Z,4.97
2019-03-17T05:30:44.263Z,5.77
2019-03-17T05:33:12.517Z,6.13
2019-03-17T05:35:40.793Z,5.60
2019-03-17T05:38:19.984Z,5.20
2019-03-17T05:40:48.231Z,5.80
2019-03-17T05:43:16.486Z,5.80
2019-03-17T05:45:44.766Z,6.00
2019-03-17T05:48:13.041Z,5.60
2019-03-17T05:50:41.296Z,6.20
2019-03-17T05:53:09.572Z,5.50
2019-03-17T05:55:37.797Z,5.60
2019-03-17T05:58:06.052Z,6.12
2019-03-17T06:00:34.308Z,6.58
2019-03-17T06:03:02.592Z,6.47
2019-03-17T06:05:30.838Z,6.12
2019-03-17T06:07:59.096Z,6.47
2019-03-17T06:10:27.366Z,5.70
2019-03-17T06:12:55.616Z,6.30
2019-03-17T06:15:23.893Z,5.97
2019-03-17T06:17:52.179Z,6.70
2019-03-17T06:20:20.419Z,6.83
2019-03-17T06:22:48.681Z,7.30
2019-03-17T06:25:16.932Z,5.42
2019-03-17T06:27:45.182Z,6.67
2019-03-17T06:30:53.483Z,6.37
2019-03-17T06:33:21.738Z,7.30
2019-03-17T06:35:49.995Z,5.57
2019-03-17T06:38:18.246Z,6.10
2019-03-17T06:40:46.494Z,6.20
2019-03-17T06:43:14.738Z,6.70
2019-03-17T06:45:43.022Z,7.67
2019-03-17T06:48:11.281Z,6.55
2019-03-17T06:50:39.535Z,6.80
2019-03-17T06:53:07.807Z,7.57
2019-03-17T06:56:07.902Z,8.10
2019-03-17T06:58:36.173Z,7.70
2019-03-17T07:01:04.434Z,7.85
2019-03-17T07:03:32.683Z,7.75
2019-03-17T07:06:00.940Z,3.15
2019-03-17T07:08:29.205Z,1.87
2019-03-17T07:10:57.464Z,1.37
2019-03-17T07:13:25.725Z,1.57
2019-03-17T07:15:53.988Z,1.83
2019-03-17T07:18:22.262Z,2.00
2019-03-17T07:20:50.541Z,1.80
2019-03-17T07:23:18.814Z,2.30
2019-03-17T07:25:47.074Z,1.82
2019-03-17T07:28:26.567Z,2.07
2019-03-17T07:30:54.849Z,2.30
2019-03-17T07:33:23.104Z,2.00
2019-03-17T07:35:51.354Z,2.10
2019-03-17T07:38:19.628Z,2.17
2019-03-17T07:40:47.901Z,2.40
2019-03-17T07:43:16.187Z,2.53
2019-03-17T07:45:44.459Z,2.12
2019-03-17T07:48:12.742Z,3.60
2019-03-17T07:50:41.002Z,2.57
2019-03-17T07:53:09.284Z,2.97
2019-03-17T07:55:37.547Z,2.20
2019-03-17T07:58:05.805Z,1.70
2019-03-17T08:00:34.084Z,2.00
2019-03-17T08:03:02.350Z,1.77
2019-03-17T08:05:30.606Z,1.50
2019-03-17T08:08:08.851Z,1.60
2019-03-17T08:10:28.830Z,2.20
2019-03-17T08:12:57.094Z,1.43
2019-03-17T08:15:25.352Z,1.43
2019-03-17T08:17:53.616Z,2.13
2019-03-17T08:20:21.873Z,2.12
2019-03-17T08:22:50.124Z,1.37
2019-03-17T08:25:18.389Z,1.83
2019-03-17T08:27:46.643Z,1.93
2019-03-17T08:30:54.924Z,1.40
2019-03-17T08:33:23.173Z,1.60
2019-03-17T08:35:51.434Z,2.10
2019-03-17T08:38:22.194Z,1.50
2019-03-17T08:40:49.686Z,1.90
2019-03-17T08:43:17.939Z,1.63
2019-03-17T08:45:46.197Z,2.17
2019-03-17T08:48:14.443Z,2.10
2019-03-17T08:50:42.691Z,1.90
2019-03-17T08:53:10.946Z,1.83
2019-03-17T08:55:39.212Z,1.93
2019-03-17T08:58:07.453Z,2.37
2019-03-17T09:00:35.715Z,2.03
2019-03-17T09:03:03.973Z,2.30
2019-03-17T09:05:32.222Z,2.10
2019-03-17T09:08:00.501Z,2.75
2019-03-17T09:10:28.753Z,2.30
2019-03-17T09:12:57.039Z,2.00
2019-03-17T09:15:25.266Z,2.30
2019-03-17T09:17:53.531Z,2.30
2019-03-17T09:20:21.778Z,2.70
2019-03-17T09:22:50.038Z,2.80
2019-03-17T09:25:18.284Z,3.13
2019-03-17T09:27:46.553Z,2.92
2019-03-17T09:30:46.277Z,3.27
2019-03-17T09:33:15.072Z,3.12
2019-03-17T09:35:43.315Z,3.57
2019-03-17T09:38:11.585Z,3.67
2019-03-17T09:40:39.836Z,4.12
2019-03-17T09:43:08.110Z,2.83
2019-03-17T09:45:36.365Z,3.02
2019-03-17T09:48:04.652Z,3.52
2019-03-17T09:50:32.903Z,2.77
2019-03-17T09:53:01.164Z,3.17
2019-03-17T09:55:29.415Z,3.10
2019-03-17T09:57:57.693Z,2.77
2019-03-17T10:00:25.949Z,3.07
2019-03-17T10:02:54.200Z,3.33
2019-03-17T10:05:22.448Z,2.95
2019-03-17T10:07:50.730Z,3.50
2019-03-17T10:10:50.842Z,3.40
2019-03-17T10:13:19.112Z,2.80
2019-03-17T10:15:47.369Z,2.70
2019-03-17T10:18:15.609Z,2.90
2019-03-17T10:20:43.885Z,2.90
2019-03-17T10:23:12.143Z,2.92
2019-03-17T10:25:40.406Z,3.07
2019-03-17T10:28:08.659Z,3.17
2019-03-17T10:30:36.924Z,3.33
2019-03-17T10:33:05.165Z,2.23
2019-03-17T10:35:33.439Z,3.15
2019-03-17T10:38:01.694Z,2.30
2019-03-17T10:40:29.946Z,2.63
2019-03-17T10:42:58.185Z,2.60
2019-03-17T10:45:26.443Z,2.03
2019-03-17T10:47:54.780Z,3.60
2019-03-17T10:50:23.103Z,2.50
2019-03-17T10:52:51.360Z,2.10
2019-03-17T10:55:19.618Z,2.83
2019-03-17T10:57:47.862Z,1.80
2019-03-17T11:00:56.171Z,2.10
2019-03-17T11:03:24.423Z,2.10
2019-03-17T11:05:54.483Z,2.37
2019-03-17T11:08:22.683Z,1.80
2019-03-17T11:10:50.930Z,1.92
2019-03-17T11:13:19.265Z,2.47
2019-03-17T11:15:47.497Z,1.83
2019-03-17T11:18:15.780Z,2.13
2019-03-17T11:20:44.029Z,1.83
2019-03-17T11:23:12.280Z,2.00
2019-03-17T11:25:40.542Z,2.37
2019-03-17T11:28:08.854Z,3.45
2019-03-17T11:30:37.116Z,2.93
2019-03-17T11:33:05.382Z,2.10
2019-03-17T11:35:33.628Z,2.77
2019-03-17T11:38:01.890Z,2.07
2019-03-17T11:40:30.144Z,2.20
2019-03-17T11:42:58.465Z,2.20
2019-03-17T11:45:26.984Z,2.30
2019-03-17T11:47:55.226Z,1.93
2019-03-17T11:50:23.553Z,2.08
2019-03-17T11:52:51.992Z,2.30
2019-03-17T11:55:20.300Z,2.02
2019-03-17T11:57:48.564Z,1.70
2019-03-17T12:03:36.691Z,2.20
2019-03-17T12:06:04.953Z,2.87
2019-03-17T12:08:33.203Z,2.23
2019-03-17T12:11:01.464Z,2.27
2019-03-17T12:13:29.716Z,1.95
2019-03-17T12:15:57.999Z,1.93
2019-03-17T12:18:26.259Z,2.43
2019-03-17T12:20:54.525Z,2.00
2019-03-17T12:23:22.788Z,1.97
2019-03-17T12:25:51.040Z,2.57
2019-03-17T12:28:19.295Z,3.40
2019-03-17T12:30:47.549Z,2.47
2019-03-17T12:33:15.799Z,2.10
2019-03-17T12:35:44.064Z,1.90
2019-03-17T12:38:12.333Z,2.10
2019-03-17T12:40:40.577Z,2.00
2019-03-17T12:43:08.826Z,2.03
2019-03-17T12:45:37.185Z,2.03
2019-03-17T12:48:05.457Z,1.95
2019-03-17T12:50:33.760Z,2.73
2019-03-17T12:53:02.012Z,2.10
2019-03-17T12:55:30.307Z,2.33
2019-03-17T12:57:58.565Z,2.97
2019-03-17T13:01:06.871Z,2.03
2019-03-17T13:03:35.184Z,2.50
2019-03-17T13:06:04.485Z,2.90
2019-03-17T13:08:32.742Z,2.62
2019-03-17T13:11:00.996Z,2.37
2019-03-17T13:13:29.243Z,2.75
2019-03-17T13:15:57.507Z,2.75
2019-03-17T13:18:25.761Z,2.40
2019-03-17T13:20:54.006Z,3.02
2019-03-17T13:23:22.256Z,1.83
2019-03-17T13:25:50.508Z,1.95
2019-03-17T13:28:18.753Z,2.30
2019-03-17T13:30:47.001Z,2.30
2019-03-17T13:33:15.259Z,2.00
2019-03-17T13:35:43.520Z,1.60
2019-03-17T13:38:11.767Z,1.63
2019-03-17T13:40:40.025Z,1.60
2019-03-17T13:43:08.272Z,2.00
2019-03-17T13:45:36.530Z,1.82
2019-03-17T13:48:04.791Z,2.30
2019-03-17T13:50:33.044Z,2.00
2019-03-17T13:53:01.304Z,2.43
2019-03-17T13:55:29.572Z,2.60
2019-03-17T13:58:17.167Z,2.23
2019-03-17T14:00:45.439Z,2.40
2019-03-17T14:03:13.700Z,2.30
2019-03-17T14:05:41.943Z,2.30
2019-03-17T14:08:10.200Z,2.67
2019-03-17T14:10:41.287Z,3.13
2019-03-17T14:13:08.434Z,3.30
2019-03-17T14:15:36.717Z,3.30
2019-03-17T14:18:04.984Z,4.03
2019-03-17T14:20:33.232Z,2.30
2019-03-17T14:23:01.501Z,3.03
2019-03-17T14:26:01.394Z,3.15
2019-03-17T14:28:29.644Z,3.35
2019-03-17T14:30:57.979Z,2.65
2019-03-17T14:33:26.234Z,2.75
2019-03-17T14:35:54.490Z,2.40
2019-03-17T14:38:22.740Z,2.40
2019-03-17T14:40:53.967Z,3.03
2019-03-17T14:43:21.002Z,2.50
2019-03-17T14:45:49.228Z,2.47
2019-03-17T14:48:17.729Z,2.17
2019-03-17T14:50:45.984Z,2.10
2019-03-17T14:53:14.227Z,1.67
2019-03-17T14:55:42.472Z,1.87
2019-03-17T14:58:10.729Z,2.17
2019-03-17T15:00:38.981Z,1.90
2019-03-17T15:03:07.247Z,2.20
2019-03-17T15:05:35.496Z,2.30
2019-03-17T15:08:03.752Z,1.87
2019-03-17T15:10:32.050Z,1.90
2019-03-17T15:13:00.309Z,2.17
2019-03-17T15:15:28.571Z,2.83
2019-03-17T15:17:56.848Z,2.40
2019-03-17T15:20:56.784Z,2.93
2019-03-17T15:23:25.041Z,3.13
2019-03-17T15:25:53.294Z,3.17
2019-03-17T15:28:21.549Z,2.53
2019-03-17T15:31:05.596Z,2.77
2019-03-17T15:33:19.797Z,2.23
2019-03-17T15:35:48.076Z,2.67
2019-03-17T15:38:36.086Z,3.00
2019-03-17T15:41:17.629Z,2.83
2019-03-17T15:43:36.037Z,2.95
2019-03-17T15:46:04.294Z,2.80
2019-03-17T15:48:32.571Z,2.70
2019-03-17T15:51:00.837Z,3.23
2019-03-17T15:53:29.124Z,2.67
2019-03-17T15:55:57.392Z,3.40
2019-03-17T15:58:25.648Z,3.30
2019-03-17T16:00:54.061Z,2.27
2019-03-17T16:03:22.307Z,2.60
2019-03-17T16:05:50.570Z,2.50
2019-03-17T16:08:18.836Z,3.40
2019-03-17T16:10:47.112Z,2.43
2019-03-17T16:13:15.360Z,2.65
2019-03-17T16:15:43.607Z,2.50
2019-03-17T16:18:11.876Z,2.70
2019-03-17T16:20:40.131Z,1.73
2019-03-17T16:23:08.390Z,2.50
2019-03-17T16:26:07.726Z,2.50
2019-03-17T16:28:36.009Z,2.40
2019-03-17T16:31:04.254Z,2.17
2019-03-17T16:33:32.520Z,2.83
2019-03-17T16:36:00.850Z,2.13
2019-03-17T16:38:29.117Z,1.90
2019-03-17T16:40:57.373Z,2.23
2019-03-17T16:43:25.639Z,2.17
2019-03-17T16:45:53.888Z,2.00
2019-03-17T16:48:22.148Z,2.60
2019-03-17T16:50:50.482Z,2.47
2019-03-17T16:53:18.749Z,2.43
2019-03-17T16:55:46.994Z,2.20
2019-03-17T16:58:28.664Z,2.53
2019-03-17T17:00:56.925Z,3.02
2019-03-17T17:03:25.190Z,2.52
2019-03-17T17:05:53.439Z,1.47
2019-03-17T17:08:21.686Z,2.10
2019-03-17T17:10:50.800Z,2.00
2019-03-17T17:13:19.906Z,2.37
2019-03-17T17:16:01.002Z,2.30
2019-03-17T17:18:29.246Z,2.80
2019-03-17T17:20:57.500Z,2.50
2019-03-17T17:23:25.746Z,2.40
2019-03-17T17:25:54.027Z,3.10
2019-03-17T17:28:22.280Z,3.57
2019-03-17T17:30:50.554Z,2.92
2019-03-17T17:33:18.809Z,2.63
2019-03-17T17:35:47.056Z,2.63
2019-03-17T17:38:15.308Z,2.00
2019-03-17T17:40:43.571Z,3.30
2019-03-17T17:43:11.846Z,3.50
2019-03-17T17:45:40.118Z,3.23
2019-03-17T17:48:08.371Z,2.65
2019-03-17T17:50:36.637Z,2.30
2019-03-17T17:53:04.885Z,4.40
2019-03-17T17:55:33.137Z,2.10
2019-03-17T17:58:01.400Z,2.30
2019-03-17T18:00:48.779Z,2.93
2019-03-17T18:03:17.032Z,3.30
2019-03-17T18:05:45.285Z,2.30
2019-03-17T18:08:13.549Z,1.82
2019-03-17T18:10:41.814Z,2.47
2019-03-17T18:13:10.073Z,1.67
2019-03-17T18:15:38.337Z,2.27
2019-03-17T18:18:06.583Z,1.98
2019-03-17T18:20:34.836Z,2.27
2019-03-17T18:23:03.093Z,2.83
2019-03-17T18:25:31.340Z,2.27
2019-03-17T18:27:59.595Z,2.85
2019-03-17T18:30:27.854Z,2.60
2019-03-17T18:32:56.139Z,2.13
2019-03-17T18:35:24.469Z,2.77
2019-03-17T18:37:52.775Z,2.27
2019-03-17T18:40:52.750Z,2.97
2019-03-17T18:43:21.011Z,2.10
2019-03-17T18:45:49.252Z,2.43
2019-03-17T18:48:17.505Z,1.90
2019-03-17T18:50:45.763Z,1.80
2019-03-17T18:53:14.019Z,2.60
2019-03-17T18:55:42.306Z,2.52
2019-03-17T18:58:22.195Z,2.00
2019-03-17T19:00:50.448Z,4.17
2019-03-17T19:03:18.689Z,2.03
2019-03-17T19:05:46.992Z,3.00
2019-03-17T19:08:15.315Z,2.13
2019-03-17T19:10:43.568Z,2.10
2019-03-17T19:13:11.863Z,2.20
2019-03-17T19:15:40.162Z,2.30
2019-03-17T19:18:08.455Z,3.23
2019-03-17T19:20:36.728Z,2.30
2019-03-17T19:23:05.004Z,2.05
2019-03-17T19:25:33.297Z,2.20
2019-03-17T19:28:01.627Z,2.00
2019-03-17T19:30:29.857Z,1.80
2019-03-17T19:32:58.143Z,1.87
2019-03-17T19:35:26.479Z,1.80
2019-03-17T19:37:55.183Z,1.95
2019-03-17T19:40:55.106Z,2.30
2019-03-17T19:43:23.377Z,1.90
2019-03-17T19:45:51.685Z,1.97
2019-03-17T19:48:19.966Z,2.10
2019-03-17T19:50:48.255Z,2.40
2019-03-17T19:53:16.561Z,2.20
2019-03-17T19:55:44.891Z,2.37
2019-03-17T19:58:13.195Z,2.10
2019-03-17T20:00:41.490Z,2.57
2019-03-17T20:03:09.800Z,2.40
2019-03-17T20:05:38.092Z,2.17
2019-03-17T20:08:06.397Z,2.87
2019-03-17T20:13:54.525Z,3.00
2019-03-17T20:16:22.833Z,2.87
2019-03-17T20:18:51.094Z,1.80
2019-03-17T20:21:19.381Z,2.60
2019-03-17T20:23:47.626Z,2.98
2019-03-17T20:26:15.869Z,2.83
2019-03-17T20:28:44.132Z,2.42
2019-03-17T20:31:12.386Z,2.05
2019-03-17T20:33:41.201Z,2.25
2019-03-17T20:36:09.446Z,2.30
2019-03-17T20:38:37.705Z,2.75
2019-03-17T20:41:05.948Z,2.67
2019-03-17T20:43:35.192Z,1.90
2019-03-17T20:46:04.172Z,1.70
2019-03-17T20:48:32.420Z,2.70
2019-03-17T20:51:00.673Z,2.13
2019-03-17T20:53:28.943Z,2.40
2019-03-17T20:55:57.195Z,2.50
2019-03-17T20:58:25.457Z,2.10
2019-03-17T21:00:53.708Z,3.20
2019-03-17T21:03:22.048Z,2.52
2019-03-17T21:05:50.299Z,2.40
2019-03-17T21:08:18.583Z,2.40
2019-03-17T21:10:49.783Z,2.20
2019-03-17T21:13:16.831Z,2.03
2019-03-17T21:15:45.079Z,2.20
2019-03-17T21:18:13.333Z,2.00
2019-03-17T21:20:41.613Z,2.53
2019-03-17T21:23:09.875Z,3.13
2019-03-17T21:25:57.469Z,2.50
2019-03-17T21:28:27.677Z,1.90
2019-03-17T21:30:55.748Z,2.87
2019-03-17T21:33:24.000Z,2.30
2019-03-17T21:35:52.259Z,2.70
2019-03-17T21:38:20.520Z,1.77
2019-03-17T21:41:05.950Z,2.37
2019-03-17T21:43:18.777Z,2.20
2019-03-17T21:45:47.035Z,1.80
2019-03-17T21:48:15.371Z,2.40
2019-03-17T21:50:43.635Z,2.23
2019-03-17T21:53:11.892Z,3.03
2019-03-17T21:55:40.168Z,2.37
2019-03-17T21:58:08.644Z,2.57
2019-03-17T22:00:36.953Z,2.80
2019-03-17T22:03:05.336Z,2.70
2019-03-17T22:05:33.515Z,3.12
2019-03-17T22:08:01.784Z,3.05
2019-03-17T22:10:30.029Z,2.37
2019-03-17T22:12:58.300Z,2.35
2019-03-17T22:15:26.544Z,1.90
2019-03-17T22:17:54.799Z,3.50
2019-03-17T22:20:23.065Z,2.23
2019-03-17T22:22:51.306Z,2.17
2019-03-17T22:25:19.568Z,3.20
2019-03-17T22:27:47.818Z,2.37
2019-03-17T22:33:35.940Z,2.87
2019-03-17T22:36:04.271Z,2.63
2019-03-17T22:38:32.538Z,4.83
2019-03-17T22:41:00.783Z,2.58
2019-03-17T22:43:29.041Z,2.43
2019-03-17T22:45:57.296Z,2.40
2019-03-17T22:48:25.568Z,2.50
2019-03-17T22:50:53.836Z,2.30
2019-03-17T22:53:22.142Z,2.50
2019-03-17T22:55:50.414Z,3.27
2019-03-17T22:58:18.663Z,2.75
2019-03-17T23:03:44.981Z,3.55
2019-03-17T23:06:13.234Z,3.58
2019-03-17T23:08:41.495Z,2.47
2019-03-17T23:11:09.741Z,2.30
2019-03-17T23:13:38.976Z,2.72
2019-03-17T23:16:07.226Z,2.57
2019-03-17T23:18:35.480Z,2.00
2019-03-17T23:21:03.729Z,2.40
2019-03-17T23:23:32.006Z,2.63
2019-03-17T23:26:00.258Z,2.43
2019-03-17T23:28:28.507Z,2.57
2019-03-17T23:30:56.760Z,3.43
2019-03-17T23:33:25.016Z,1.90
2019-03-17T23:35:53.271Z,2.20
2019-03-17T23:38:21.521Z,2.73
2019-03-17T23:40:49.790Z,2.40
2019-03-17T23:43:18.040Z,2.83
2019-03-17T23:45:46.300Z,2.30
2019-03-17T23:48:14.552Z,2.90
2019-03-17T23:50:42.813Z,3.40
2019-03-17T23:53:30.404Z,3.53
2019-03-17T23:55:58.683Z,3.00
2019-03-17T23:58:26.939Z,3.07
